createdAt,value
2023-04-01T00:00:22.374Z,96277.44
2023-04-01T00:03:12.508Z,96266.84
2023-04-01T00:05:39.357Z,96263.78
2023-04-01T00:08:24.850Z,96269.59
2023-04-01T00:10:59.842Z,96271.22
2023-04-01T00:13:31.346Z,96274.00
2023-04-01T00:16:41.962Z,96271.38
2023-04-01T00:19:52.626Z,96276.19
2023-04-01T00:22:43.699Z,96270.66
2023-04-01T00:25:48.632Z,96273.38
2023-04-01T00:28:29.214Z,96272.84
2023-04-01T00:31:02.097Z,96268.44
2023-04-01T00:33:29.720Z,96267.06
2023-04-01T00:36:17.431Z,96268.94
2023-04-01T00:38:44.760Z,96262.22
2023-04-01T00:41:16.115Z,96270.59
2023-04-01T00:43:54.045Z,96255.06
2023-04-01T00:46:22.455Z,96243.66
2023-04-01T00:49:10.786Z,96233.50
2023-04-01T00:51:39.847Z,96248.59
2023-04-01T00:54:10.224Z,96236.53
2023-04-01T00:57:36.709Z,96227.44
2023-04-01T01:03:22.532Z,96227.59
2023-04-01T01:06:23.629Z,96213.97
2023-04-01T01:12:24.074Z,96220.69
2023-04-01T01:22:17.821Z,96217.56
2023-04-01T01:25:08.791Z,96220.84
2023-04-01T01:28:06.974Z,96210.00
2023-04-01T01:30:44.047Z,96206.41
2023-04-01T01:34:03.499Z,96204.31
2023-04-01T01:37:19.971Z,96198.31
2023-04-01T01:39:57.689Z,96206.25
2023-04-01T01:42:42.071Z,96206.13
2023-04-01T01:45:30.905Z,96208.75
2023-04-01T01:48:06.487Z,96206.16
2023-04-01T01:54:49.177Z,96201.91
2023-04-01T01:56:49.844Z,96203.53
2023-04-01T01:59:59.340Z,96186.75
2023-04-01T02:02:33.683Z,96201.03
2023-04-01T02:05:07.505Z,96194.75
2023-04-01T02:07:51.306Z,96192.41
2023-04-01T02:10:27.340Z,96188.66
2023-04-01T02:16:13.392Z,96176.59
2023-04-01T02:25:56.601Z,96161.19
2023-04-01T02:29:02.008Z,96167.91
2023-04-01T02:31:50.489Z,96168.72
2023-04-01T02:34:37.633Z,96168.59
2023-04-01T02:37:18.801Z,96163.38
2023-04-01T02:39:52.112Z,96157.63
2023-04-01T02:42:19.763Z,96162.00
2023-04-01T02:44:49.885Z,96163.25
2023-04-01T02:47:18.322Z,96158.44
2023-04-01T02:50:02.467Z,96154.84
2023-04-01T02:52:48.124Z,96154.84
2023-04-01T02:55:18.715Z,96151.31
2023-04-01T02:58:09.696Z,96159.13
2023-04-01T03:00:38.169Z,96152.25
2023-04-01T03:03:10.732Z,96155.16
2023-04-01T03:05:43.439Z,96149.94
2023-04-01T03:08:45.421Z,96141.41
2023-04-01T03:11:03.641Z,96142.25
2023-04-01T03:13:31.791Z,96138.66
2023-04-01T03:16:15.189Z,96129.75
2023-04-01T03:18:58.210Z,96130.97
2023-04-01T03:24:13.649Z,96118.88
2023-04-01T03:26:51.960Z,96127.41
2023-04-01T03:29:25.050Z,96130.56
2023-04-01T03:31:59.710Z,96131.53
2023-04-01T03:34:31.722Z,96139.63
2023-04-01T03:36:59.892Z,96139.19
2023-04-01T03:39:36.273Z,96136.16
2023-04-01T03:42:03.268Z,96145.78
2023-04-01T03:44:38.351Z,96139.19
2023-04-01T03:47:05.226Z,96145.09
2023-04-01T03:49:48.520Z,96135.66
2023-04-01T03:52:15.669Z,96136.31
2023-04-01T03:54:52.062Z,96130.53
2023-04-01T03:57:22.786Z,96136.31
2023-04-01T03:59:55.600Z,96133.72
2023-04-01T04:02:32.467Z,96126.59
2023-04-01T04:05:09.146Z,96124.66
2023-04-01T04:07:39.545Z,96130.97
2023-04-01T04:10:10.576Z,96132.66
2023-04-01T04:12:37.594Z,96131.25
2023-04-01T04:15:08.429Z,96122.72
2023-04-01T04:17:40.449Z,96127.94
2023-04-01T04:20:22.524Z,96136.75
2023-04-01T04:22:50.369Z,96124.94
2023-04-01T04:25:19.948Z,96129.19
2023-04-01T04:27:49.704Z,96130.31
2023-04-01T04:30:20.052Z,96136.91
2023-04-01T04:32:47.123Z,96137.72
2023-04-01T04:35:30.035Z,96131.03
2023-04-01T04:38:00.300Z,96124.97
2023-04-01T04:40:33.390Z,96123.03
2023-04-01T04:43:24.749Z,96120.59
2023-04-01T04:48:55.678Z,96127.41
2023-04-01T04:52:00.963Z,96118.38
2023-04-01T04:54:41.439Z,96117.50
2023-04-01T04:57:19.833Z,96115.56
2023-04-01T04:59:50.757Z,96115.16
2023-04-01T05:02:42.353Z,96106.81
2023-04-01T05:05:13.285Z,96093.00
2023-04-01T05:08:51.532Z,96108.47
2023-04-01T05:10:54.736Z,96092.53
2023-04-01T05:13:22.454Z,96092.03
2023-04-01T05:15:49.824Z,96092.78
2023-04-01T05:19:03.409Z,96087.47
2023-04-01T05:21:06.545Z,96078.06
2023-04-01T05:23:34.402Z,96084.88
2023-04-01T05:26:20.048Z,96080.66
2023-04-01T05:28:46.883Z,96077.81
2023-04-01T05:31:18.883Z,96079.91
2023-04-01T05:36:30.402Z,96078.06
2023-04-01T05:39:01.090Z,96072.94
2023-04-01T05:44:16.304Z,96065.16
2023-04-01T05:49:28.934Z,96073.44
2023-04-01T05:52:08.703Z,96069.41
2023-04-01T05:54:47.413Z,96058.00
2023-04-01T05:57:14.926Z,96063.44
2023-04-01T05:59:41.948Z,96056.91
2023-04-01T06:02:21.064Z,96055.28
2023-04-01T06:04:48.930Z,96044.63
2023-04-01T06:07:18.700Z,96047.41
2023-04-01T06:09:50.176Z,96041.53
2023-04-01T06:12:31.021Z,96049.28
2023-04-01T06:15:12.064Z,96044.53
2023-04-01T06:18:24.116Z,96055.19
2023-04-01T06:21:20.305Z,96055.66
2023-04-01T06:24:06.837Z,96066.19
2023-04-01T06:27:08.174Z,96064.22
2023-04-01T06:30:07.014Z,96058.31
2023-04-01T06:36:17.225Z,96067.19
2023-04-01T06:38:59.244Z,96054.22
2023-04-01T06:41:55.088Z,96058.50
2023-04-01T06:44:31.882Z,96065.06
2023-04-01T06:47:38.742Z,96063.25
2023-04-01T06:50:59.580Z,96065.91
2023-04-01T06:53:44.398Z,96046.63
2023-04-01T06:56:41.127Z,96047.47
2023-04-01T06:59:14.692Z,96036.56
2023-04-01T07:02:08.541Z,96029.66
2023-04-01T07:07:31.678Z,96009.81
2023-04-01T07:10:20.651Z,95998.41
2023-04-01T07:12:59.698Z,95986.00
2023-04-01T07:15:44.570Z,95981.31
2023-04-01T07:18:57.092Z,95976.63
2023-04-01T07:21:44.744Z,95977.06
2023-04-01T07:24:26.250Z,95976.38
2023-04-01T07:27:01.065Z,95978.03
2023-04-01T07:29:30.438Z,95960.53
2023-04-01T07:32:18.928Z,95951.63
2023-04-01T07:34:57.268Z,95943.69
2023-04-01T07:38:05.514Z,95944.91
2023-04-01T07:40:32.691Z,95946.09
2023-04-01T07:43:38.273Z,95945.19
2023-04-01T07:46:24.721Z,95931.09
2023-04-01T07:49:07.135Z,95927.28
2023-04-01T07:52:06.802Z,95929.56
2023-04-01T07:54:45.323Z,95923.25
2023-04-01T07:58:13.929Z,95911.53
2023-04-01T08:01:01.506Z,95912.22
2023-04-01T08:03:35.200Z,95907.19
2023-04-01T08:06:30.502Z,95900.94
2023-04-01T08:09:00.440Z,95913.47
2023-04-01T08:11:47.746Z,95913.00
2023-04-01T08:14:41.827Z,95898.69
2023-04-01T08:17:39.928Z,95897.81
2023-04-01T08:20:28.220Z,95899.47
2023-04-01T08:23:25.241Z,95898.66
2023-04-01T08:26:00.701Z,95881.09
2023-04-01T08:29:06.699Z,95881.06
2023-04-01T08:31:53.481Z,95877.97
2023-04-01T08:34:47.078Z,95872.31
2023-04-01T08:40:57.474Z,95861.44
2023-04-01T08:43:58.935Z,95860.69
2023-04-01T08:47:12.340Z,95857.66
2023-04-01T08:50:10.145Z,95863.66
2023-04-01T08:53:03.426Z,95864.84
2023-04-01T08:59:11.903Z,95846.88
2023-04-01T09:05:42.489Z,95834.50
2023-04-01T09:09:00.180Z,95829.09
2023-04-01T09:12:04.572Z,95818.66
2023-04-01T09:15:41.532Z,95809.06
2023-04-01T09:18:33.176Z,95810.53
2023-04-01T09:21:13.441Z,95810.81
2023-04-01T09:24:19.301Z,95802.22
2023-04-01T09:27:09.561Z,95797.03
2023-04-01T09:29:55.382Z,95800.06
2023-04-01T09:32:47.019Z,95799.56
2023-04-01T09:36:00.044Z,95806.09
2023-04-01T09:38:39.074Z,95814.16
2023-04-01T09:41:28.572Z,95809.53
2023-04-01T09:45:00.749Z,95812.03
2023-04-01T09:47:44.956Z,95817.88
2023-04-01T09:50:41.141Z,95818.16
2023-04-01T09:53:08.537Z,95825.41
2023-04-01T09:56:04.008Z,95823.13
2023-04-01T09:58:50.231Z,95828.16
2023-04-01T10:01:48.172Z,95828.28
2023-04-01T10:04:37.661Z,95807.72
2023-04-01T10:07:45.004Z,95804.31
2023-04-01T10:10:36.677Z,95801.13
2023-04-01T10:13:21.952Z,95804.91
2023-04-01T10:16:25.650Z,95784.34
2023-04-01T10:19:37.845Z,95783.31
2023-04-01T10:22:38.893Z,95763.78
2023-04-01T10:25:27.327Z,95751.34
2023-04-01T10:28:25.184Z,95735.38
2023-04-01T10:31:51.941Z,95723.72
2023-04-01T10:34:48.144Z,95720.09
2023-04-01T10:37:55.552Z,95713.66
2023-04-01T10:40:31.243Z,95695.00
2023-04-01T10:43:35.735Z,95705.56
2023-04-01T10:46:05.394Z,95703.50
2023-04-01T10:49:06.522Z,95709.53
2023-04-01T10:52:11.185Z,95703.75
2023-04-01T10:54:50.662Z,95693.28
2023-04-01T10:57:38.559Z,95703.59
2023-04-01T11:04:12.097Z,95708.34
2023-04-01T11:07:11.392Z,95700.09
2023-04-01T11:10:09.763Z,95698.94
2023-04-01T11:13:11.661Z,95679.56
2023-04-01T11:16:13.527Z,95689.75
2023-04-01T11:19:37.818Z,95690.69
2023-04-01T11:22:50.084Z,95690.16
2023-04-01T11:25:52.103Z,95680.34
2023-04-01T11:28:42.193Z,95665.06
2023-04-01T11:32:10.542Z,95662.91
2023-04-01T11:34:52.506Z,95657.22
2023-04-01T11:37:48.034Z,95652.09
2023-04-01T11:40:40.433Z,95636.53
2023-04-01T11:43:45.034Z,95632.09
2023-04-01T11:46:14.255Z,95629.47
2023-04-01T11:49:07.278Z,95631.34
2023-04-01T11:52:13.799Z,95627.38
2023-04-01T11:55:02.366Z,95626.06
2023-04-01T11:58:05.485Z,95611.41
2023-04-01T12:00:43.944Z,95620.41
2023-04-01T12:03:23.576Z,95620.00
2023-04-01T12:06:11.718Z,95606.53
2023-04-01T12:09:05.439Z,95611.72
2023-04-01T12:11:57.077Z,95612.88
2023-04-01T12:14:40.818Z,95606.59
2023-04-01T12:17:38.948Z,95596.31
2023-04-01T12:20:30.087Z,95590.44
2023-04-01T12:23:24.587Z,95589.63
2023-04-01T12:25:57.307Z,95583.44
2023-04-01T12:28:32.255Z,95594.97
2023-04-01T12:31:25.121Z,95593.91
2023-04-01T12:34:21.600Z,95591.47
2023-04-01T12:36:59.797Z,95590.31
2023-04-01T12:40:04.450Z,95584.19
2023-04-01T12:42:49.221Z,95576.44
2023-04-01T12:45:31.428Z,95578.06
2023-04-01T12:48:32.312Z,95570.78
2023-04-01T12:51:29.030Z,95573.31
2023-04-01T12:54:31.538Z,95567.56
2023-04-01T12:57:04.333Z,95567.22
2023-04-01T12:59:34.617Z,95568.72
2023-04-01T13:02:17.352Z,95565.91
2023-04-01T13:04:56.485Z,95561.25
2023-04-01T13:08:00.237Z,95565.94
2023-04-01T13:10:48.810Z,95559.31
2023-04-01T13:13:37.829Z,95555.59
2023-04-01T13:16:41.715Z,95550.16
2023-04-01T13:19:15.901Z,95545.41
2023-04-01T13:21:42.568Z,95533.34
2023-04-01T13:24:47.319Z,95541.47
2023-04-01T13:27:22.521Z,95540.78
2023-04-01T13:30:20.085Z,95529.91
2023-04-01T13:33:36.464Z,95523.63
2023-04-01T13:36:19.639Z,95520.38
2023-04-01T13:39:21.672Z,95528.16
2023-04-01T13:42:26.399Z,95520.97
2023-04-01T13:45:02.097Z,95529.69
2023-04-01T13:47:32.086Z,95526.66
2023-04-01T13:50:47.163Z,95531.53
2023-04-01T13:54:00.627Z,95528.63
2023-04-01T14:00:17.049Z,95533.47
2023-04-01T14:03:08.787Z,95531.97
2023-04-01T14:05:51.910Z,95534.03
2023-04-01T14:08:45.467Z,95536.22
2023-04-01T14:11:30.775Z,95535.38
2023-04-01T14:14:07.975Z,95538.75
2023-04-01T14:16:41.176Z,95533.81
2023-04-01T14:19:14.130Z,95552.06
2023-04-01T14:22:16.740Z,95579.25
2023-04-01T14:25:13.536Z,95641.94
2023-04-01T14:27:56.334Z,95743.56
2023-04-01T14:30:49.609Z,95805.47
2023-04-01T14:33:43.456Z,95830.88
2023-04-01T14:36:45.390Z,95858.84
2023-04-01T14:39:41.654Z,95864.47
2023-04-01T14:42:22.048Z,95868.31
2023-04-01T14:45:23.932Z,95861.38
2023-04-01T14:48:38.751Z,95869.56
2023-04-01T14:51:34.022Z,95870.63
2023-04-01T14:54:46.463Z,95873.53
2023-04-01T14:57:29.500Z,95869.06
2023-04-01T15:00:05.470Z,95855.31
2023-04-01T15:02:50.875Z,95856.47
2023-04-01T15:05:26.506Z,95828.75
2023-04-01T15:08:04.440Z,95816.34
2023-04-01T15:10:43.843Z,95805.69
2023-04-01T15:13:26.189Z,95798.44
2023-04-01T15:15:59.077Z,95822.44
2023-04-01T15:18:52.113Z,95833.56
2023-04-01T15:21:57.440Z,95827.94
2023-04-01T15:24:49.588Z,95825.28
2023-04-01T15:27:25.468Z,95800.81
2023-04-01T15:30:20.053Z,95786.91
2023-04-01T15:33:08.664Z,95759.41
2023-04-01T15:36:00.728Z,95745.41
2023-04-01T15:38:27.783Z,95724.75
2023-04-01T15:41:27.874Z,95721.31
2023-04-01T15:43:55.485Z,95704.22
2023-04-01T15:46:31.479Z,95692.91
2023-04-01T15:49:16.933Z,95686.06
2023-04-01T15:52:02.480Z,95700.63
2023-04-01T15:54:47.618Z,95717.41
2023-04-01T15:57:34.891Z,95752.53
2023-04-01T16:00:17.255Z,95773.84
2023-04-01T16:03:02.516Z,95777.44
2023-04-01T16:06:11.570Z,95776.84
2023-04-01T16:09:00.104Z,95769.72
2023-04-01T16:11:58.252Z,95771.06
2023-04-01T16:14:55.125Z,95784.63
2023-04-01T16:17:39.304Z,95792.19
2023-04-01T16:20:19.417Z,95800.25
2023-04-01T16:23:48.066Z,95791.81
2023-04-01T16:26:44.832Z,95789.16
2023-04-01T16:29:30.658Z,95792.63
2023-04-01T16:32:34.514Z,95795.50
2023-04-01T16:35:26.441Z,95826.44
2023-04-01T16:38:37.296Z,95810.47
2023-04-01T16:42:13.007Z,95791.81
2023-04-01T16:45:03.540Z,95794.06
2023-04-01T16:47:43.960Z,95803.19
2023-04-01T16:50:24.720Z,95822.16
2023-04-01T16:53:19.503Z,95813.31
2023-04-01T16:56:21.498Z,95814.50
2023-04-01T16:59:39.193Z,95831.75
2023-04-01T17:02:28.352Z,95831.38
2023-04-01T17:05:04.705Z,95813.47
2023-04-01T17:07:58.285Z,95825.34
2023-04-01T17:11:17.894Z,95815.50
2023-04-01T17:13:57.707Z,95823.28
2023-04-01T17:17:04.679Z,95813.81
2023-04-01T17:20:07.317Z,95808.69
2023-04-01T17:23:04.273Z,95817.28
2023-04-01T17:25:51.765Z,95840.91
2023-04-01T17:28:51.714Z,95843.53
2023-04-01T17:31:49.021Z,95846.31
2023-04-01T17:35:05.368Z,95851.13
2023-04-01T17:38:04.019Z,95851.94
2023-04-01T17:41:14.237Z,95863.25
2023-04-01T17:44:37.126Z,95872.31
2023-04-01T17:48:21.643Z,95879.34
2023-04-01T17:50:54.272Z,95880.34
2023-04-01T17:53:57.393Z,95898.34
2023-04-01T18:04:35.584Z,95902.28
2023-04-01T18:08:32.362Z,95895.75
2023-04-01T18:11:25.090Z,95948.19
2023-04-01T18:14:51.425Z,96018.41
2023-04-01T18:17:42.601Z,96049.13
2023-04-01T18:20:31.527Z,96063.44
2023-04-01T18:27:14.190Z,96067.00
2023-04-01T18:30:26.380Z,96056.19
2023-04-01T18:32:47.478Z,96038.84
2023-04-01T18:45:38.281Z,96040.84
2023-04-01T18:51:47.426Z,96024.47
2023-04-01T18:52:10.840Z,96025.91
2023-04-01T18:54:46.759Z,96031.34
2023-04-01T18:57:16.021Z,96019.22
2023-04-01T19:11:28.146Z,96012.16
2023-04-01T19:23:13.069Z,95997.19
2023-04-01T19:33:13.295Z,96008.34
2023-04-01T19:36:17.444Z,96025.56
2023-04-01T19:39:13.819Z,96037.88
2023-04-01T19:43:31.387Z,96038.53
2023-04-01T19:46:35.379Z,96044.47
2023-04-01T20:01:08.066Z,96070.72
2023-04-01T20:04:22.745Z,96065.47
2023-04-01T20:06:59.978Z,96066.09
2023-04-01T20:10:26.892Z,96065.47
2023-04-01T20:13:41.711Z,96074.50
2023-04-01T20:19:59.700Z,96076.00
2023-04-01T20:23:25.674Z,96087.31
2023-04-01T20:30:05.921Z,96084.50
2023-04-01T20:35:14.979Z,96078.94
2023-04-01T20:37:27.626Z,96084.84
2023-04-01T20:43:51.715Z,96089.41
2023-04-01T20:47:10.936Z,96096.28
2023-04-01T20:50:57.033Z,96094.13
2023-04-01T20:54:12.403Z,96093.63
2023-04-01T21:00:53.412Z,96089.59
2023-04-01T21:04:32.974Z,96089.69
2023-04-01T21:10:56.510Z,96092.06
2023-04-01T21:14:01.801Z,96093.88
2023-04-01T21:17:28.918Z,96099.28
2023-04-01T21:26:48.761Z,96113.00
2023-04-01T21:29:39.148Z,96111.72
2023-04-01T21:32:35.946Z,96096.81
2023-04-01T21:36:00.412Z,96098.97
2023-04-01T21:39:06.959Z,96098.00
2023-04-01T21:42:25.590Z,96095.78
2023-04-01T21:45:22.422Z,96091.16
2023-04-01T21:48:49.182Z,96087.03
2023-04-01T21:55:27.781Z,96100.00
2023-04-01T22:01:26.026Z,96106.50
2023-04-01T22:04:14.851Z,96102.63
2023-04-01T22:07:57.719Z,96093.19
2023-04-01T22:11:00.212Z,96112.34
2023-04-01T22:14:12.528Z,96111.19
2023-04-01T22:17:01.218Z,96118.94
2023-04-01T22:23:15.994Z,96125.47
2023-04-01T22:26:19.090Z,96129.81
2023-04-01T22:29:10.545Z,96137.09
2023-04-01T22:31:52.210Z,96141.34
2023-04-01T22:35:12.422Z,96141.84
2023-04-01T22:38:26.873Z,96156.25
2023-04-01T22:41:34.768Z,96159.41
2023-04-01T22:44:23.362Z,96155.16
2023-04-01T22:47:16.405Z,96158.53
2023-04-01T22:50:06.443Z,96154.72
2023-04-01T22:52:41.994Z,96148.97
2023-04-01T22:55:40.039Z,96159.84
2023-04-01T22:59:12.570Z,96162.97
2023-04-01T23:05:10.596Z,96153.50
2023-04-01T23:07:54.362Z,96149.00
2023-04-01T23:10:45.579Z,96152.47
2023-04-01T23:13:37.031Z,96150.50
2023-04-01T23:16:56.891Z,96152.25
2023-04-01T23:19:37.458Z,96141.13
2023-04-01T23:23:16.522Z,96146.06
2023-04-01T23:26:41.010Z,96147.56
2023-04-01T23:29:17.447Z,96136.41
2023-04-01T23:33:00.454Z,96133.44
2023-04-01T23:39:09.275Z,96128.88
2023-04-01T23:42:09.422Z,96123.16
2023-04-01T23:52:26.303Z,96118.03
2023-04-01T23:55:24.965Z,96136.66
